首页
METAR-TAF:

METAR-TAF

机场 :

埃門, 瑞士

纬度: 47-05-32N, 经度: 8-18-16E, 海拔: 426米

当前天气观测

该预报发布于27分钟前的00:20 UTC
风速4节,风向南转西南,在南转南东西之间变化
温度 2°C
湿度 93%
气压 1006 hPa
能见度10公里或以上
少量云层高于1100英尺

METAR: LSME 180020Z AUTO 21004KT 160V280 9999NDV FEW011 02/01 Q1006 RMK

时间: 01:47 (00:47 UTC)


TAF: 丢失

超过4000个机场的气象观测和天气预报(METAR&TAF报告)。

可查询的气象台以黄色和红色小点在地图上表示。

将鼠标移到小点上方,可查看气象台名称。

然后点击查看天气观测和预报。

如需切换地图:点击带黑十字的绿色按钮放大地图;点击带横线的绿色按钮缩小地图;或者点击绿色箭头查看邻近地区的地图。


METAR-TAF: